PVR weather

Licenciado Gustavo Díaz Ordaz International Airport
Puerto Vallarta, Jalisco, Mexico

Public forecast

Using degrees Celsius for public forecast. Weather courtesy of forecast.io.

Current aviation weather report (METAR) for Licenciado Gustavo Díaz Ordaz International Airport

Retrieved 2019/10/18 23:44 UTC (1 hour ago):

MMPR 182344Z 12004KT 7SM -RA SCT020CB OVC070 26/25 A2978 RMK SLP082 57001 902 60085 8/36/ RAB40

Aviation forecast (TAF) for Licenciado Gustavo Díaz Ordaz International Airport

Retrieved 2019-10-19 00:21 UTC (37 minutes ago):

TAF MMPR 182317Z 1900/2006 26010KT P6SM SCT020CB BKN070 OVC250 TX30/1920Z TN25/1912Z TEMPO 1900/1904 4SM TSRA BKN020CB FM190400 31006KT 5SM -RA SCT020CB BKN080 BKN200 FM190700 35005KT P6SM SCT020 BKN250 FM191800 24010KT P6SM SCT020 BKN250 TEMPO 1923/2003 4SM TSRA BKN020CB FM200300 33005KT 5SM VC TS SCT020CB BKN080 BKN250